Flight Track Log - Related Links

Times and Time Zones

All times are in EDT time to prevent confusion due to time zone crossing. See the N822SK flight status page for this flight to view local times or setup timezone preferences in your user account.

Time Position Orientation Groundspeed Altitude Reporting Facility
EDT Latitude Longitude Course Direction KTS MPH feet Rate Location/Type
Mon 10:06:15 PM 40.7353 -112.2883 213° Southwest 286 329 12,300  Level Salt Lake Center
Mon 10:07:17 PM 40.6586 -112.3544 182° South 324 373 13,800 1,839 Climbing Salt Lake Center
Mon 10:08:19 PM 40.5417 -112.3597 180° South 358 412 16,100 2,081 Climbing Salt Lake Center
Mon 10:09:21 PM 40.4392 -112.3589 183° South 364 419 18,100 1,790 Climbing Salt Lake Center
Mon 10:10:23 PM 40.3308 -112.3653 208° Southwest 387 445 19,800 1,742 Climbing Salt Lake Center
Mon 10:11:25 PM 40.2328 -112.4322 208° Southwest 393 452 21,700 1,887 Climbing Salt Lake Center
Mon 10:12:27 PM 40.1333 -112.5014 208° Southwest 399 459 23,700 1,935 Climbing Salt Lake Center
Mon 10:13:29 PM 40.0347 -112.5708 209° Southwest 399 459 25,700 1,548 Climbing Salt Lake Center
Mon 10:14:31 PM 39.9356 -112.6414 207° Southwest 401 461 26,900 1,161 Climbing Salt Lake Center
Mon 10:15:33 PM 39.8117 -112.7247 208° Southwest 421 484 28,100 1,065 Climbing Salt Lake Center
Mon 10:16:35 PM 39.7131 -112.7931 198° South 439 505 29,100 1,065 Climbing Salt Lake Center
Mon 10:17:37 PM 39.5942 -112.8436 195° South 445 512 30,300 1,161 Climbing Salt Lake Center
Mon 10:18:39 PM 39.4717 -112.8864 194° South 447 514 31,500 823 Climbing Salt Lake Center
Mon 10:19:41 PM 39.3464 -112.9275 195° South 454 522 32,000 242 Climbing Salt Lake Center
Mon 10:20:43 PM 39.1914 -112.9797 194° South 467 537 32,000  Level Salt Lake Center
Mon 10:21:45 PM 39.0642 -113.0194 193° South 466 536 32,000 387 Level Salt Lake Center
Mon 10:22:47 PM 38.9372 -113.0578 194° South 463 533 32,800 1,113 Climbing Salt Lake Center
Mon 10:23:49 PM 38.8117 -113.0975 194° South 460 529 34,300 1,355 Climbing Salt Lake Center
Mon 10:24:51 PM 38.6903 -113.1372 194° South 450 518 35,600 823 Climbing Salt Lake Center
Mon 10:25:53 PM 38.5703 -113.1742 194° South 441 507 36,000 629 Climbing Salt Lake Center
Mon 10:26:55 PM 38.4486 -113.2125 195° South 442 509 36,900 919 Climbing Salt Lake Center
Mon 10:27:57 PM 38.3289 -113.2525 194° South 440 506 37,900 532 Climbing Salt Lake Center
Mon 10:28:59 PM 38.2100 -113.2889 194° South 436 502 38,000 48 Climbing Salt Lake Center
Mon 10:30:01 PM 38.0892 -113.3278 194° South 440 506 38,000  Level Salt Lake Center
Mon 10:31:03 PM 37.9681 -113.3661 203° Southwest 443 510 38,000  Level Salt Lake Center
Mon 10:32:05 PM 37.8350 -113.4372 212° Southwest 429 494 38,000  Level Salt Lake Center
Mon 10:33:07 PM 37.7356 -113.5169 213° Southwest 421 484 38,000  Level Salt Lake Center
Mon 10:34:09 PM 37.6367 -113.5972 212° Southwest 419 482 38,000  Level Salt Lake Center
Mon 10:35:10 PM 37.5569 -113.6592 212° Southwest 418 481 38,000  Level Salt Lake Center
Mon 10:36:13 PM 37.4367 -113.7550 212° Southwest 420 483 38,000  Level Salt Lake Center
Mon 10:38:16 PM 37.2339 -113.9133 212° Southwest 423 487 38,000  Level Salt Lake Center
Mon 10:39:18 PM 37.1314 -113.9933 212° Southwest 426 490 38,000  Level Salt Lake Center
Mon 10:40:08 PM 37.0394 -114.0667 211° Southwest 426 490 38,000  Level Los Angeles Center
Mon 10:41:07 PM 36.9383 -114.1419 211° Southwest 426 490 38,000  Level Los Angeles Center
Mon 10:42:07 PM 36.8394 -114.2172 212° Southwest 426 490 38,000  Level Los Angeles Center
Mon 10:43:07 PM 36.7406 -114.2947 212° Southwest 426 490 38,000  Level Los Angeles Center
Mon 10:44:07 PM 36.6436 -114.3694 212° Southwest 426 490 38,000  Level Los Angeles Center
Mon 10:45:07 PM 36.5467 -114.4439 212° Southwest 426 490 38,000  Level Los Angeles Center
Mon 10:46:07 PM 36.4497 -114.5181 211° Southwest 420 483 38,000  Level Los Angeles Center
Mon 10:47:07 PM 36.3483 -114.5950 211° Southwest 426 490 38,000  Level Los Angeles Center
Mon 10:48:07 PM 36.2594 -114.6611 212° Southwest 426 490 38,000  Level Los Angeles Center
Mon 10:49:07 PM 36.1561 -114.7400 212° Southwest 426 490 38,000  Level Los Angeles Center
Mon 10:50:07 PM 36.0569 -114.8164 216° Southwest 426 490 38,000  Level Los Angeles Center
Mon 10:51:07 PM 35.9619 -114.9025 228° Southwest 426 490 38,000  Level Los Angeles Center
Mon 10:52:07 PM 35.8836 -115.0114 228° Southwest 426 490 38,000  Level Los Angeles Center
Mon 10:53:07 PM 35.8072 -115.1147 228° Southwest 416 479 38,000  Level Los Angeles Center
Mon 10:54:07 PM 35.7267 -115.2233 228° Southwest 421 484 38,000  Level Los Angeles Center
Mon 10:55:07 PM 35.6503 -115.3289 227° Southwest 421 484 38,000  Level Los Angeles Center
Mon 10:56:08 PM 35.5694 -115.4344 227° Southwest 421 484 38,000  Level Los Angeles Center
Mon 10:57:07 PM 35.4908 -115.5397 228° Southwest 421 484 38,000  Level Los Angeles Center
Mon 10:58:07 PM 35.4017 -115.6600 228° Southwest 426 490 38,000  Level Los Angeles Center
Mon 10:59:07 PM 35.3228 -115.7675 227° Southwest 426 490 38,000 -500 Level Los Angeles Center
Mon 11:00:07 PM 35.2436 -115.8719 227° Southwest 426 490 37,000 -1,550 Descending Los Angeles Center
Mon 11:01:07 PM 35.1644 -115.9764 227° Southwest 421 484 34,900 -1,500 Descending Los Angeles Center
Mon 11:02:07 PM 35.0872 -116.0781 227° Southwest 421 484 34,000 -900 Descending Los Angeles Center
Mon 11:03:07 PM 35.0103 -116.1794 228° Southwest 416 479 33,100 -1,550 Descending Los Angeles Center
Mon 11:04:07 PM 34.9308 -116.2858 227° Southwest 416 479 30,900 -2,150 Descending Los Angeles Center
Mon 11:05:07 PM 34.8492 -116.3919 226° Southwest 422 486 28,800 -2,100 Descending Los Angeles Center
Mon 11:06:07 PM 34.7675 -116.4956 225° Southwest 428 493 26,700 -2,150 Descending Los Angeles Center
Mon 11:07:07 PM 34.6817 -116.6011 225° Southwest 428 493 24,500 -2,250 Descending Los Angeles Center
Mon 11:08:07 PM 34.5956 -116.7067 226° Southwest 428 493 22,200 -2,300 Descending Los Angeles Center
Mon 11:09:07 PM 34.5178 -116.8044 224° Southwest 428 493 19,900 -2,350 Descending Los Angeles Center
Mon 11:10:07 PM 34.4378 -116.8994 225° Southwest 413 475 17,500 -2,250 Descending Los Angeles Center
Mon 11:11:07 PM 34.3642 -116.9894 223° Southwest 398 458 15,400 -1,720 Descending Los Angeles Center
Mon 11:12:44 PM 34.2500 -117.1167 189° South 360 414 13,000 -954 Descending Southern California TRACON
Mon 11:13:38 PM 34.1667 -117.1333 188° South 353 406 13,000 -200 Level Southern California TRACON
Mon 11:14:44 PM 34.0667 -117.1500 180° South 297 342 12,600 -850 Descending Southern California TRACON
Mon 11:15:38 PM 34.0000 -117.1500 198° South 289 333 11,300 -1,263 Descending Southern California TRACON
Mon 11:16:38 PM 33.9167 -117.1833 256° West 291 335 10,200 -1,100 Descending Southern California TRACON
Mon 11:17:38 PM 33.9000 -117.2667 244° Southwest 268 308 9,100 -1,050 Descending Southern California TRACON
Mon 11:18:38 PM 33.8667 -117.3500 246° West 270 311 8,100 -653 Descending Southern California TRACON
Mon 11:19:19 PM 33.8472 -117.4017 247° West 263 303 8,000 -59 Descending Los Angeles Center
Mon 11:20:19 PM 33.8192 -117.4814 246° West 268 308 8,000 -400 Level Los Angeles Center
Mon 11:21:19 PM 33.7911 -117.5583 250° West 263 303 7,200 -700 Descending Los Angeles Center
Mon 11:22:19 PM 33.7672 -117.6356 247° West 247 284 6,600 -612 Descending Los Angeles Center
Mon 11:22:57 PM 33.7500 -117.6833 253° West 232 267 6,200 -1,043 Descending Southern California TRACON
Mon 11:23:51 PM 33.7333 -117.7500 239° Southwest 230 265 5,000 -1,158 Descending Southern California TRACON
Mon 11:24:51 PM 33.7000 -117.8167 253° West 221 254 4,000 -500 Descending Southern California TRACON
Mon 11:25:51 PM 33.6833 -117.8833 270° West 213 245 4,000 -300 Level Southern California TRACON
Mon 11:26:51 PM 33.6833 -117.9500 292° West 210 242 3,400 -626 Descending Southern California TRACON
Mon 11:27:46 PM 33.7000 -118.0000 309° West 208 239 2,800 -678 Descending Southern California TRACON
Mon 11:28:46 PM 33.7333 -118.0500 309° West 206 237 2,100 -850 Descending Southern California TRACON
Mon 11:29:46 PM 33.7667 -118.1000 320° Northwest 160 184 1,100 -850 Descending Southern California TRACON
Mon 11:30:46 PM 33.8000 -118.1333 104° East 136 157 400 -700 Descending Southern California TRACON
Mon 11:38:32 PM 33.6049 -117.1769 104° East  Level FlightAware Approximate

Login

Don't have an account? Register now (free) for customized features, flight alerts, and more!